American Canyon, California
Current Conditions -  °F | °C
As of 1:54 PM on Wednesday 26 Nov 2014 (Local Time) from KAPC Reporting Station
Clear Clear  
Wind Chill: 19°   Ceiling: Unl
Heat Index: 19°   Visibility: 10mi
Dew Point:   Wind: 13mph
Humidity: 49%   Direction: 100°E
Pressure: 30.22"   Gusts: NA
Location:  38.17°N, 122.25°W
Report Text: KAPC 262154Z AUTO 10011KT 10SM CLR 19/08 A3022 RMK AO2 SLP225 T01940083
Loading
Personal Weather Stations






























Interactive Weather Map New forecast layout! Learn more

10-Day Weather Forecast

Advertisements
Track Severe Weather on mobile